sensor_id;sensor_type;location;lat;lon;timestamp;P1;durP1;ratioP1;P2;durP2;ratioP2
77362;SDS011;66428;47.322;9.432;2023-02-04T00:01:09;1.17;;;0.63;;
77362;SDS011;66428;47.322;9.432;2023-02-04T00:03:36;1.90;;;0.50;;
77362;SDS011;66428;47.322;9.432;2023-02-04T00:06:07;0.90;;;0.47;;
77362;SDS011;66428;47.322;9.432;2023-02-04T00:08:34;0.88;;;0.45;;
77362;SDS011;66428;47.322;9.432;2023-02-04T00:11:03;0.88;;;0.60;;
77362;SDS011;66428;47.322;9.432;2023-02-04T00:13:36;1.10;;;0.82;;
77362;SDS011;66428;47.322;9.432;2023-02-04T00:16:03;0.93;;;0.55;;
77362;SDS011;66428;47.322;9.432;2023-02-04T00:18:34;0.60;;;0.50;;
77362;SDS011;66428;47.322;9.432;2023-02-04T00:21:01;0.43;;;0.30;;
77362;SDS011;66428;47.322;9.432;2023-02-04T00:23:30;0.40;;;0.28;;
77362;SDS011;66428;47.322;9.432;2023-02-04T00:25:56;0.57;;;0.57;;
77362;SDS011;66428;47.322;9.432;2023-02-04T00:28:25;0.98;;;0.60;;
77362;SDS011;66428;47.322;9.432;2023-02-04T00:30:52;1.00;;;0.30;;
77362;SDS011;66428;47.322;9.432;2023-02-04T00:33:21;1.40;;;0.60;;
77362;SDS011;66428;47.322;9.432;2023-02-04T00:35:50;2.30;;;1.02;;
77362;SDS011;66428;47.322;9.432;2023-02-04T00:38:22;3.92;;;1.42;;
77362;SDS011;66428;47.322;9.432;2023-02-04T00:40:48;2.97;;;1.17;;
77362;SDS011;66428;47.322;9.432;2023-02-04T00:43:22;5.63;;;1.80;;
77362;SDS011;66428;47.322;9.432;2023-02-04T00:45:51;4.53;;;1.83;;
77362;SDS011;66428;47.322;9.432;2023-02-04T00:48:20;4.75;;;1.70;;
77362;SDS011;66428;47.322;9.432;2023-02-04T00:50:49;3.08;;;1.40;;
77362;SDS011;66428;47.322;9.432;2023-02-04T00:53:15;4.78;;;1.50;;
77362;SDS011;66428;47.322;9.432;2023-02-04T00:55:42;2.83;;;1.27;;
77362;SDS011;66428;47.322;9.432;2023-02-04T00:58:08;1.95;;;1.35;;
77362;SDS011;66428;47.322;9.432;2023-02-04T01:00:37;1.75;;;0.80;;
77362;SDS011;66428;47.322;9.432;2023-02-04T01:03:06;1.58;;;0.82;;
77362;SDS011;66428;47.322;9.432;2023-02-04T01:05:33;1.98;;;1.00;;
77362;SDS011;66428;47.322;9.432;2023-02-04T01:07:59;1.13;;;0.77;;
77362;SDS011;66428;47.322;9.432;2023-02-04T01:10:26;1.50;;;0.90;;
77362;SDS011;66428;47.322;9.432;2023-02-04T01:12:53;1.33;;;0.82;;
77362;SDS011;66428;47.322;9.432;2023-02-04T01:15:22;1.80;;;1.00;;
77362;SDS011;66428;47.322;9.432;2023-02-04T01:17:49;1.38;;;0.60;;
77362;SDS011;66428;47.322;9.432;2023-02-04T01:20:15;2.28;;;0.60;;
77362;SDS011;66428;47.322;9.432;2023-02-04T01:22:49;0.93;;;0.73;;
77362;SDS011;66428;47.322;9.432;2023-02-04T01:25:18;1.33;;;0.70;;
77362;SDS011;66428;47.322;9.432;2023-02-04T01:27:47;1.17;;;0.70;;
77362;SDS011;66428;47.322;9.432;2023-02-04T01:30:14;0.90;;;0.63;;
77362;SDS011;66428;47.322;9.432;2023-02-04T01:32:45;0.50;;;0.47;;
77362;SDS011;66428;47.322;9.432;2023-02-04T01:35:14;1.15;;;0.80;;
77362;SDS011;66428;47.322;9.432;2023-02-04T01:37:43;1.20;;;0.50;;
77362;SDS011;66428;47.322;9.432;2023-02-04T01:40:10;0.68;;;0.52;;
77362;SDS011;66428;47.322;9.432;2023-02-04T01:42:39;1.33;;;0.77;;
77362;SDS011;66428;47.322;9.432;2023-02-04T01:45:10;0.52;;;0.40;;
77362;SDS011;66428;47.322;9.432;2023-02-04T01:47:39;0.40;;;0.40;;
77362;SDS011;66428;47.322;9.432;2023-02-04T01:50:09;1.05;;;0.60;;
77362;SDS011;66428;47.322;9.432;2023-02-04T01:52:41;0.70;;;0.57;;
77362;SDS011;66428;47.322;9.432;2023-02-04T01:55:14;0.40;;;0.30;;
77362;SDS011;66428;47.322;9.432;2023-02-04T01:57:42;0.32;;;0.25;;
77362;SDS011;66428;47.322;9.432;2023-02-04T02:00:18;0.10;;;0.10;;
77362;SDS011;66428;47.322;9.432;2023-02-04T02:02:49;0.20;;;0.20;;
77362;SDS011;66428;47.322;9.432;2023-02-04T02:05:19;0.20;;;0.20;;
77362;SDS011;66428;47.322;9.432;2023-02-04T02:07:52;0.47;;;0.40;;
77362;SDS011;66428;47.322;9.432;2023-02-04T02:10:19;0.20;;;0.20;;
77362;SDS011;66428;47.322;9.432;2023-02-04T02:15:13;0.20;;;0.20;;
77362;SDS011;66428;47.322;9.432;2023-02-04T02:17:45;0.30;;;0.30;;
77362;SDS011;66428;47.322;9.432;2023-02-04T02:20:16;0.55;;;0.20;;
77362;SDS011;66428;47.322;9.432;2023-02-04T02:22:48;0.30;;;0.30;;
77362;SDS011;66428;47.322;9.432;2023-02-04T02:25:18;0.32;;;0.22;;
77362;SDS011;66428;47.322;9.432;2023-02-04T02:27:46;0.88;;;0.55;;
77362;SDS011;66428;47.322;9.432;2023-02-04T02:30:13;0.75;;;0.50;;
77362;SDS011;66428;47.322;9.432;2023-02-04T02:32:43;0.40;;;0.30;;
77362;SDS011;66428;47.322;9.432;2023-02-04T02:35:15;0.40;;;0.40;;
77362;SDS011;66428;47.322;9.432;2023-02-04T02:37:41;0.30;;;0.30;;
77362;SDS011;66428;47.322;9.432;2023-02-04T02:40:08;0.13;;;0.13;;
77362;SDS011;66428;47.322;9.432;2023-02-04T02:42:35;0.30;;;0.30;;
77362;SDS011;66428;47.322;9.432;2023-02-04T02:45:05;0.32;;;0.32;;
77362;SDS011;66428;47.322;9.432;2023-02-04T02:47:36;0.70;;;0.35;;
77362;SDS011;66428;47.322;9.432;2023-02-04T02:50:02;0.30;;;0.30;;
77362;SDS011;66428;47.322;9.432;2023-02-04T02:52:35;0.60;;;0.43;;
77362;SDS011;66428;47.322;9.432;2023-02-04T02:55:06;0.55;;;0.55;;
77362;SDS011;66428;47.322;9.432;2023-02-04T02:57:40;0.43;;;0.35;;
77362;SDS011;66428;47.322;9.432;2023-02-04T03:00:16;0.38;;;0.38;;
77362;SDS011;66428;47.322;9.432;2023-02-04T03:02:48;0.30;;;0.30;;
77362;SDS011;66428;47.322;9.432;2023-02-04T03:05:20;0.22;;;0.22;;
77362;SDS011;66428;47.322;9.432;2023-02-04T03:10:14;0.22;;;0.22;;
77362;SDS011;66428;47.322;9.432;2023-02-04T03:12:44;0.93;;;0.40;;
77362;SDS011;66428;47.322;9.432;2023-02-04T03:15:11;0.40;;;0.30;;
77362;SDS011;66428;47.322;9.432;2023-02-04T03:17:39;3.90;;;1.35;;
77362;SDS011;66428;47.322;9.432;2023-02-04T03:20:11;12.48;;;6.45;;
77362;SDS011;66428;47.322;9.432;2023-02-04T03:22:39;3.88;;;1.70;;
77362;SDS011;66428;47.322;9.432;2023-02-04T03:25:08;10.23;;;8.23;;
77362;SDS011;66428;47.322;9.432;2023-02-04T03:27:37;21.80;;;14.80;;
77362;SDS011;66428;47.322;9.432;2023-02-04T03:30:06;12.95;;;8.23;;
77362;SDS011;66428;47.322;9.432;2023-02-04T03:32:34;5.95;;;3.47;;
77362;SDS011;66428;47.322;9.432;2023-02-04T03:35:03;2.38;;;1.85;;
77362;SDS011;66428;47.322;9.432;2023-02-04T03:37:32;1.73;;;1.10;;
77362;SDS011;66428;47.322;9.432;2023-02-04T03:39:58;1.08;;;0.60;;
77362;SDS011;66428;47.322;9.432;2023-02-04T03:42:25;1.10;;;0.65;;
77362;SDS011;66428;47.322;9.432;2023-02-04T03:44:56;0.40;;;0.32;;
77362;SDS011;66428;47.322;9.432;2023-02-04T03:47:25;0.47;;;0.40;;
77362;SDS011;66428;47.322;9.432;2023-02-04T03:49:54;0.65;;;0.52;;
77362;SDS011;66428;47.322;9.432;2023-02-04T03:52:21;0.55;;;0.47;;
77362;SDS011;66428;47.322;9.432;2023-02-04T03:54:47;0.35;;;0.35;;
77362;SDS011;66428;47.322;9.432;2023-02-04T03:57:18;0.82;;;0.60;;
77362;SDS011;66428;47.322;9.432;2023-02-04T03:59:45;0.50;;;0.40;;
77362;SDS011;66428;47.322;9.432;2023-02-04T04:02:16;0.43;;;0.38;;
77362;SDS011;66428;47.322;9.432;2023-02-04T04:04:48;0.57;;;0.40;;
77362;SDS011;66428;47.322;9.432;2023-02-04T04:07:19;0.32;;;0.30;;
77362;SDS011;66428;47.322;9.432;2023-02-04T04:09:48;0.80;;;0.70;;
77362;SDS011;66428;47.322;9.432;2023-02-04T04:12:17;0.40;;;0.40;;
77362;SDS011;66428;47.322;9.432;2023-02-04T04:14:46;0.40;;;0.40;;
77362;SDS011;66428;47.322;9.432;2023-02-04T04:17:12;1.83;;;1.00;;
77362;SDS011;66428;47.322;9.432;2023-02-04T04:19:41;0.73;;;0.55;;
77362;SDS011;66428;47.322;9.432;2023-02-04T04:22:09;0.75;;;0.60;;
77362;SDS011;66428;47.322;9.432;2023-02-04T04:24:38;1.35;;;0.43;;
77362;SDS011;66428;47.322;9.432;2023-02-04T04:27:07;0.70;;;0.47;;
77362;SDS011;66428;47.322;9.432;2023-02-04T04:29:33;0.70;;;0.47;;
77362;SDS011;66428;47.322;9.432;2023-02-04T04:32:00;0.30;;;0.30;;
77362;SDS011;66428;47.322;9.432;2023-02-04T04:34:29;2.03;;;1.20;;
77362;SDS011;66428;47.322;9.432;2023-02-04T04:36:55;1.65;;;1.13;;
77362;SDS011;66428;47.322;9.432;2023-02-04T04:39:27;1.63;;;1.02;;
77362;SDS011;66428;47.322;9.432;2023-02-04T04:41:53;0.95;;;0.63;;
77362;SDS011;66428;47.322;9.432;2023-02-04T04:44:20;2.25;;;1.40;;
77362;SDS011;66428;47.322;9.432;2023-02-04T04:46:47;1.20;;;0.70;;
77362;SDS011;66428;47.322;9.432;2023-02-04T04:49:16;0.82;;;0.55;;
77362;SDS011;66428;47.322;9.432;2023-02-04T04:51:45;0.75;;;0.50;;
77362;SDS011;66428;47.322;9.432;2023-02-04T04:54:16;3.33;;;2.85;;
77362;SDS011;66428;47.322;9.432;2023-02-04T04:56:42;2.50;;;1.88;;
77362;SDS011;66428;47.322;9.432;2023-02-04T04:59:09;2.05;;;1.45;;
77362;SDS011;66428;47.322;9.432;2023-02-04T05:01:35;3.25;;;2.20;;
77362;SDS011;66428;47.322;9.432;2023-02-04T05:04:02;2.00;;;1.13;;
77362;SDS011;66428;47.322;9.432;2023-02-04T05:06:29;3.78;;;1.88;;
77362;SDS011;66428;47.322;9.432;2023-02-04T05:08:55;4.03;;;2.20;;
77362;SDS011;66428;47.322;9.432;2023-02-04T05:11:25;4.28;;;2.95;;
77362;SDS011;66428;47.322;9.432;2023-02-04T05:13:55;5.38;;;3.00;;
77362;SDS011;66428;47.322;9.432;2023-02-04T05:18:48;1.17;;;0.80;;
77362;SDS011;66428;47.322;9.432;2023-02-04T05:23:45;1.08;;;0.68;;
77362;SDS011;66428;47.322;9.432;2023-02-04T05:26:14;1.58;;;0.93;;
77362;SDS011;66428;47.322;9.432;2023-02-04T05:28:55;1.50;;;0.75;;
77362;SDS011;66428;47.322;9.432;2023-02-04T05:31:21;2.13;;;1.38;;
77362;SDS011;66428;47.322;9.432;2023-02-04T05:36:20;3.65;;;1.67;;
77362;SDS011;66428;47.322;9.432;2023-02-04T05:38:54;2.40;;;1.40;;
77362;SDS011;66428;47.322;9.432;2023-02-04T05:41:20;1.60;;;1.08;;
77362;SDS011;66428;47.322;9.432;2023-02-04T05:43:49;3.17;;;1.40;;
77362;SDS011;66428;47.322;9.432;2023-02-04T05:46:16;3.35;;;1.83;;
77362;SDS011;66428;47.322;9.432;2023-02-04T05:48:44;4.28;;;2.50;;
77362;SDS011;66428;47.322;9.432;2023-02-04T05:51:11;2.67;;;1.70;;
77362;SDS011;66428;47.322;9.432;2023-02-04T05:53:41;2.03;;;1.42;;
77362;SDS011;66428;47.322;9.432;2023-02-04T05:56:09;1.67;;;0.95;;
77362;SDS011;66428;47.322;9.432;2023-02-04T05:58:38;1.20;;;0.90;;
77362;SDS011;66428;47.322;9.432;2023-02-04T06:01:07;1.60;;;1.00;;
77362;SDS011;66428;47.322;9.432;2023-02-04T06:06:02;1.02;;;0.60;;
77362;SDS011;66428;47.322;9.432;2023-02-04T06:08:31;1.33;;;0.73;;
77362;SDS011;66428;47.322;9.432;2023-02-04T06:10:58;1.27;;;0.77;;
77362;SDS011;66428;47.322;9.432;2023-02-04T06:13:24;1.55;;;1.00;;
77362;SDS011;66428;47.322;9.432;2023-02-04T06:15:53;3.33;;;2.70;;
77362;SDS011;66428;47.322;9.432;2023-02-04T06:18:28;5.40;;;1.90;;
77362;SDS011;66428;47.322;9.432;2023-02-04T06:20:57;2.50;;;1.52;;
77362;SDS011;66428;47.322;9.432;2023-02-04T06:25:50;2.13;;;1.40;;
77362;SDS011;66428;47.322;9.432;2023-02-04T06:28:22;17.17;;;10.25;;
77362;SDS011;66428;47.322;9.432;2023-02-04T06:30:49;19.52;;;12.32;;
77362;SDS011;66428;47.322;9.432;2023-02-04T06:35:47;2.90;;;1.73;;
77362;SDS011;66428;47.322;9.432;2023-02-04T06:38:14;2.58;;;1.30;;
77362;SDS011;66428;47.322;9.432;2023-02-04T06:40:42;1.70;;;0.95;;
77362;SDS011;66428;47.322;9.432;2023-02-04T06:43:08;1.73;;;1.00;;
77362;SDS011;66428;47.322;9.432;2023-02-04T06:45:37;5.85;;;2.60;;
77362;SDS011;66428;47.322;9.432;2023-02-04T06:48:04;3.65;;;1.60;;
77362;SDS011;66428;47.322;9.432;2023-02-04T06:50:33;2.95;;;1.27;;
77362;SDS011;66428;47.322;9.432;2023-02-04T06:53:04;1.30;;;0.80;;
77362;SDS011;66428;47.322;9.432;2023-02-04T06:55:33;5.00;;;2.33;;
77362;SDS011;66428;47.322;9.432;2023-02-04T06:57:59;16.70;;;9.95;;
77362;SDS011;66428;47.322;9.432;2023-02-04T07:00:26;16.40;;;8.65;;
77362;SDS011;66428;47.322;9.432;2023-02-04T07:02:52;25.20;;;13.50;;
77362;SDS011;66428;47.322;9.432;2023-02-04T07:07:46;5.47;;;4.63;;
77362;SDS011;66428;47.322;9.432;2023-02-04T07:10:12;3.45;;;2.60;;
77362;SDS011;66428;47.322;9.432;2023-02-04T07:12:44;4.28;;;2.80;;
77362;SDS011;66428;47.322;9.432;2023-02-04T07:15:14;2.15;;;1.40;;
77362;SDS011;66428;47.322;9.432;2023-02-04T07:17:41;2.20;;;1.23;;
77362;SDS011;66428;47.322;9.432;2023-02-04T07:20:10;2.63;;;1.10;;
77362;SDS011;66428;47.322;9.432;2023-02-04T07:22:37;1.35;;;0.95;;
77362;SDS011;66428;47.322;9.432;2023-02-04T07:25:03;6.10;;;3.53;;
77362;SDS011;66428;47.322;9.432;2023-02-04T07:27:32;3.08;;;2.05;;
77362;SDS011;66428;47.322;9.432;2023-02-04T07:30:01;4.28;;;2.33;;
77362;SDS011;66428;47.322;9.432;2023-02-04T07:32:30;2.10;;;1.30;;
77362;SDS011;66428;47.322;9.432;2023-02-04T07:35:02;2.30;;;1.40;;
77362;SDS011;66428;47.322;9.432;2023-02-04T07:37:33;1.27;;;0.90;;
77362;SDS011;66428;47.322;9.432;2023-02-04T07:40:05;2.35;;;1.40;;
77362;SDS011;66428;47.322;9.432;2023-02-04T07:42:34;1.90;;;1.33;;
77362;SDS011;66428;47.322;9.432;2023-02-04T07:45:11;2.22;;;1.35;;
77362;SDS011;66428;47.322;9.432;2023-02-04T07:47:39;2.00;;;1.15;;
77362;SDS011;66428;47.322;9.432;2023-02-04T07:50:12;2.33;;;1.45;;
77362;SDS011;66428;47.322;9.432;2023-02-04T07:52:38;3.17;;;1.48;;
77362;SDS011;66428;47.322;9.432;2023-02-04T07:55:05;2.03;;;1.35;;
77362;SDS011;66428;47.322;9.432;2023-02-04T07:57:32;1.80;;;1.10;;
77362;SDS011;66428;47.322;9.432;2023-02-04T08:02:27;1.10;;;0.88;;
77362;SDS011;66428;47.322;9.432;2023-02-04T08:04:58;2.05;;;1.13;;
77362;SDS011;66428;47.322;9.432;2023-02-04T08:07:30;1.15;;;0.63;;
77362;SDS011;66428;47.322;9.432;2023-02-04T08:09:59;0.88;;;0.70;;
77362;SDS011;66428;47.322;9.432;2023-02-04T08:12:25;0.77;;;0.50;;
77362;SDS011;66428;47.322;9.432;2023-02-04T08:14:54;0.57;;;0.45;;
77362;SDS011;66428;47.322;9.432;2023-02-04T08:17:21;1.65;;;0.80;;
77362;SDS011;66428;47.322;9.432;2023-02-04T08:19:50;1.88;;;1.00;;
77362;SDS011;66428;47.322;9.432;2023-02-04T08:22:19;2.00;;;1.02;;
77362;SDS011;66428;47.322;9.432;2023-02-04T08:24:47;2.20;;;1.05;;
77362;SDS011;66428;47.322;9.432;2023-02-04T08:27:19;1.85;;;1.10;;
77362;SDS011;66428;47.322;9.432;2023-02-04T08:29:45;1.77;;;0.95;;
77362;SDS011;66428;47.322;9.432;2023-02-04T08:32:12;1.33;;;0.82;;
77362;SDS011;66428;47.322;9.432;2023-02-04T08:34:43;1.17;;;0.65;;
77362;SDS011;66428;47.322;9.432;2023-02-04T08:37:12;2.47;;;1.27;;
77362;SDS011;66428;47.322;9.432;2023-02-04T08:39:39;3.13;;;1.50;;
77362;SDS011;66428;47.322;9.432;2023-02-04T08:42:09;2.78;;;1.88;;
77362;SDS011;66428;47.322;9.432;2023-02-04T08:44:38;4.50;;;3.10;;
77362;SDS011;66428;47.322;9.432;2023-02-04T08:47:04;5.30;;;2.90;;
77362;SDS011;66428;47.322;9.432;2023-02-04T08:49:33;3.17;;;2.55;;
77362;SDS011;66428;47.322;9.432;2023-02-04T08:52:00;5.38;;;4.88;;
77362;SDS011;66428;47.322;9.432;2023-02-04T08:54:28;4.55;;;3.83;;
77362;SDS011;66428;47.322;9.432;2023-02-04T08:56:57;5.28;;;3.50;;
77362;SDS011;66428;47.322;9.432;2023-02-04T08:59:28;3.08;;;2.47;;
77362;SDS011;66428;47.322;9.432;2023-02-04T09:04:24;3.65;;;1.45;;
77362;SDS011;66428;47.322;9.432;2023-02-04T09:06:50;3.10;;;1.75;;
77362;SDS011;66428;47.322;9.432;2023-02-04T09:09:19;2.47;;;1.50;;
77362;SDS011;66428;47.322;9.432;2023-02-04T09:11:53;1.55;;;1.00;;
77362;SDS011;66428;47.322;9.432;2023-02-04T09:14:20;2.47;;;1.00;;
77362;SDS011;66428;47.322;9.432;2023-02-04T09:16:46;1.55;;;1.02;;
77362;SDS011;66428;47.322;9.432;2023-02-04T09:19:16;2.58;;;1.25;;
77362;SDS011;66428;47.322;9.432;2023-02-04T09:21:53;3.28;;;1.60;;
77362;SDS011;66428;47.322;9.432;2023-02-04T09:24:24;3.03;;;1.58;;
77362;SDS011;66428;47.322;9.432;2023-02-04T09:26:53;1.75;;;1.23;;
77362;SDS011;66428;47.322;9.432;2023-02-04T09:29:19;1.55;;;1.00;;
77362;SDS011;66428;47.322;9.432;2023-02-04T09:31:48;2.80;;;1.50;;
77362;SDS011;66428;47.322;9.432;2023-02-04T09:36:41;2.10;;;1.35;;
77362;SDS011;66428;47.322;9.432;2023-02-04T09:39:08;2.38;;;1.10;;
77362;SDS011;66428;47.322;9.432;2023-02-04T09:41:35;1.42;;;0.93;;
77362;SDS011;66428;47.322;9.432;2023-02-04T09:44:12;2.00;;;0.90;;
77362;SDS011;66428;47.322;9.432;2023-02-04T09:46:42;1.63;;;0.90;;
77362;SDS011;66428;47.322;9.432;2023-02-04T09:49:15;1.63;;;0.95;;
77362;SDS011;66428;47.322;9.432;2023-02-04T09:51:44;1.75;;;1.08;;
77362;SDS011;66428;47.322;9.432;2023-02-04T09:54:16;0.85;;;0.70;;
77362;SDS011;66428;47.322;9.432;2023-02-04T09:56:43;1.55;;;0.65;;
77362;SDS011;66428;47.322;9.432;2023-02-04T09:59:15;1.25;;;0.75;;
77362;SDS011;66428;47.322;9.432;2023-02-04T10:02:01;0.98;;;0.50;;
77362;SDS011;66428;47.322;9.432;2023-02-04T10:04:30;1.13;;;0.60;;
77362;SDS011;66428;47.322;9.432;2023-02-04T10:07:01;1.40;;;0.77;;
77362;SDS011;66428;47.322;9.432;2023-02-04T10:09:29;1.77;;;0.90;;
77362;SDS011;66428;47.322;9.432;2023-02-04T10:11:57;1.90;;;1.10;;
77362;SDS011;66428;47.322;9.432;2023-02-04T10:14:29;1.33;;;0.90;;
77362;SDS011;66428;47.322;9.432;2023-02-04T10:16:59;2.00;;;1.10;;
77362;SDS011;66428;47.322;9.432;2023-02-04T10:19:29;2.17;;;1.40;;
77362;SDS011;66428;47.322;9.432;2023-02-04T10:22:00;2.35;;;1.30;;
77362;SDS011;66428;47.322;9.432;2023-02-04T10:24:30;2.05;;;1.33;;
77362;SDS011;66428;47.322;9.432;2023-02-04T10:27:05;1.85;;;1.20;;
77362;SDS011;66428;47.322;9.432;2023-02-04T10:29:32;3.28;;;1.33;;
77362;SDS011;66428;47.322;9.432;2023-02-04T10:31:59;2.15;;;1.20;;
77362;SDS011;66428;47.322;9.432;2023-02-04T10:34:38;1.48;;;0.98;;
77362;SDS011;66428;47.322;9.432;2023-02-04T10:37:16;1.85;;;1.10;;
77362;SDS011;66428;47.322;9.432;2023-02-04T10:39:44;1.20;;;0.90;;
77362;SDS011;66428;47.322;9.432;2023-02-04T10:44:49;1.00;;;0.52;;
77362;SDS011;66428;47.322;9.432;2023-02-04T10:47:20;1.65;;;0.60;;
77362;SDS011;66428;47.322;9.432;2023-02-04T10:50:06;0.40;;;0.40;;
77362;SDS011;66428;47.322;9.432;2023-02-04T10:52:43;0.32;;;0.32;;
77362;SDS011;66428;47.322;9.432;2023-02-04T10:55:13;0.32;;;0.32;;
77362;SDS011;66428;47.322;9.432;2023-02-04T10:57:41;0.65;;;0.40;;
77362;SDS011;66428;47.322;9.432;2023-02-04T11:00:15;0.55;;;0.50;;
77362;SDS011;66428;47.322;9.432;2023-02-04T11:05:22;1.40;;;1.00;;
77362;SDS011;66428;47.322;9.432;2023-02-04T11:07:49;1.40;;;0.93;;
77362;SDS011;66428;47.322;9.432;2023-02-04T11:10:28;1.50;;;1.00;;
77362;SDS011;66428;47.322;9.432;2023-02-04T11:13:00;1.45;;;0.95;;
77362;SDS011;66428;47.322;9.432;2023-02-04T11:15:46;1.35;;;0.98;;
77362;SDS011;66428;47.322;9.432;2023-02-04T11:20:49;1.67;;;1.05;;
77362;SDS011;66428;47.322;9.432;2023-02-04T11:28:44;1.45;;;1.02;;
77362;SDS011;66428;47.322;9.432;2023-02-04T11:31:12;2.15;;;0.90;;
77362;SDS011;66428;47.322;9.432;2023-02-04T11:33:41;1.25;;;1.00;;
77362;SDS011;66428;47.322;9.432;2023-02-04T11:36:11;2.38;;;1.05;;
77362;SDS011;66428;47.322;9.432;2023-02-04T11:38:47;1.15;;;0.63;;
77362;SDS011;66428;47.322;9.432;2023-02-04T11:41:23;2.00;;;1.13;;
77362;SDS011;66428;47.322;9.432;2023-02-04T11:43:50;1.98;;;0.88;;
77362;SDS011;66428;47.322;9.432;2023-02-04T11:46:19;4.50;;;1.40;;
77362;SDS011;66428;47.322;9.432;2023-02-04T11:48:52;2.85;;;1.40;;
77362;SDS011;66428;47.322;9.432;2023-02-04T11:51:23;4.53;;;1.92;;
77362;SDS011;66428;47.322;9.432;2023-02-04T11:53:56;4.45;;;1.60;;
77362;SDS011;66428;47.322;9.432;2023-02-04T11:56:22;2.78;;;1.33;;
77362;SDS011;66428;47.322;9.432;2023-02-04T11:58:51;4.50;;;1.65;;
77362;SDS011;66428;47.322;9.432;2023-02-04T12:01:29;4.35;;;1.98;;
77362;SDS011;66428;47.322;9.432;2023-02-04T12:03:56;3.67;;;1.75;;
77362;SDS011;66428;47.322;9.432;2023-02-04T12:06:27;3.22;;;1.38;;
77362;SDS011;66428;47.322;9.432;2023-02-04T12:09:04;3.70;;;1.60;;
77362;SDS011;66428;47.322;9.432;2023-02-04T12:11:31;2.85;;;1.60;;
77362;SDS011;66428;47.322;9.432;2023-02-04T12:14:08;4.57;;;1.90;;
77362;SDS011;66428;47.322;9.432;2023-02-04T12:16:45;3.65;;;1.80;;
77362;SDS011;66428;47.322;9.432;2023-02-04T12:21:40;2.88;;;1.60;;
77362;SDS011;66428;47.322;9.432;2023-02-04T12:24:09;3.58;;;2.08;;
77362;SDS011;66428;47.322;9.432;2023-02-04T12:26:36;5.28;;;2.33;;
77362;SDS011;66428;47.322;9.432;2023-02-04T12:29:02;2.90;;;2.13;;
77362;SDS011;66428;47.322;9.432;2023-02-04T12:31:33;8.23;;;2.90;;
77362;SDS011;66428;47.322;9.432;2023-02-04T12:34:00;8.60;;;3.25;;
77362;SDS011;66428;47.322;9.432;2023-02-04T12:36:31;6.30;;;2.88;;
77362;SDS011;66428;47.322;9.432;2023-02-04T12:39:00;8.93;;;2.80;;
77362;SDS011;66428;47.322;9.432;2023-02-04T12:41:28;7.18;;;2.92;;
77362;SDS011;66428;47.322;9.432;2023-02-04T12:43:57;4.63;;;2.72;;
77362;SDS011;66428;47.322;9.432;2023-02-04T12:46:23;8.27;;;3.28;;
77362;SDS011;66428;47.322;9.432;2023-02-04T12:48:55;8.48;;;3.67;;
77362;SDS011;66428;47.322;9.432;2023-02-04T12:51:21;12.75;;;4.40;;
77362;SDS011;66428;47.322;9.432;2023-02-04T12:53:50;7.03;;;3.63;;
77362;SDS011;66428;47.322;9.432;2023-02-04T12:56:18;4.45;;;2.35;;
77362;SDS011;66428;47.322;9.432;2023-02-04T12:58:45;6.55;;;2.67;;
77362;SDS011;66428;47.322;9.432;2023-02-04T13:01:16;6.88;;;3.17;;
77362;SDS011;66428;47.322;9.432;2023-02-04T13:03:46;5.85;;;3.10;;
77362;SDS011;66428;47.322;9.432;2023-02-04T13:06:15;6.53;;;2.58;;
77362;SDS011;66428;47.322;9.432;2023-02-04T13:08:41;6.72;;;2.90;;
77362;SDS011;66428;47.322;9.432;2023-02-04T13:11:10;8.52;;;3.00;;
77362;SDS011;66428;47.322;9.432;2023-02-04T13:13:41;7.18;;;3.30;;
77362;SDS011;66428;47.322;9.432;2023-02-04T13:16:10;6.90;;;2.75;;
77362;SDS011;66428;47.322;9.432;2023-02-04T13:18:37;9.98;;;3.25;;
77362;SDS011;66428;47.322;9.432;2023-02-04T13:21:04;12.23;;;4.18;;
77362;SDS011;66428;47.322;9.432;2023-02-04T13:23:33;6.78;;;3.00;;
77362;SDS011;66428;47.322;9.432;2023-02-04T13:26:02;7.28;;;2.80;;
77362;SDS011;66428;47.322;9.432;2023-02-04T13:28:31;4.07;;;2.67;;
77362;SDS011;66428;47.322;9.432;2023-02-04T13:31:00;5.88;;;2.78;;
77362;SDS011;66428;47.322;9.432;2023-02-04T13:33:29;6.20;;;2.63;;
77362;SDS011;66428;47.322;9.432;2023-02-04T13:35:58;5.20;;;2.65;;
77362;SDS011;66428;47.322;9.432;2023-02-04T13:38:27;7.68;;;3.50;;
77362;SDS011;66428;47.322;9.432;2023-02-04T13:40:57;8.98;;;3.15;;
77362;SDS011;66428;47.322;9.432;2023-02-04T13:43:25;7.45;;;3.13;;
77362;SDS011;66428;47.322;9.432;2023-02-04T13:45:54;5.75;;;3.08;;
77362;SDS011;66428;47.322;9.432;2023-02-04T13:48:26;7.65;;;3.55;;
77362;SDS011;66428;47.322;9.432;2023-02-04T13:50:55;8.60;;;3.83;;
77362;SDS011;66428;47.322;9.432;2023-02-04T13:53:24;9.43;;;3.17;;
77362;SDS011;66428;47.322;9.432;2023-02-04T13:55:58;7.82;;;3.65;;
77362;SDS011;66428;47.322;9.432;2023-02-04T13:58:26;6.82;;;4.13;;
77362;SDS011;66428;47.322;9.432;2023-02-04T14:00:53;6.22;;;3.60;;
77362;SDS011;66428;47.322;9.432;2023-02-04T14:03:26;6.85;;;3.22;;
77362;SDS011;66428;47.322;9.432;2023-02-04T14:08:24;6.70;;;3.60;;
77362;SDS011;66428;47.322;9.432;2023-02-04T14:10:51;10.57;;;3.60;;
77362;SDS011;66428;47.322;9.432;2023-02-04T14:13:20;12.05;;;3.45;;
77362;SDS011;66428;47.322;9.432;2023-02-04T14:15:51;5.78;;;3.47;;
77362;SDS011;66428;47.322;9.432;2023-02-04T14:18:18;15.90;;;4.15;;
77362;SDS011;66428;47.322;9.432;2023-02-04T14:20:47;14.73;;;4.78;;
77362;SDS011;66428;47.322;9.432;2023-02-04T14:23:13;27.60;;;8.02;;
77362;SDS011;66428;47.322;9.432;2023-02-04T14:25:40;33.55;;;13.32;;
77362;SDS011;66428;47.322;9.432;2023-02-04T14:28:06;33.58;;;12.73;;
77362;SDS011;66428;47.322;9.432;2023-02-04T14:30:33;24.48;;;10.32;;
77362;SDS011;66428;47.322;9.432;2023-02-04T14:33:03;15.45;;;7.28;;
77362;SDS011;66428;47.322;9.432;2023-02-04T14:35:30;14.63;;;5.53;;
77362;SDS011;66428;47.322;9.432;2023-02-04T14:37:56;9.60;;;4.43;;
77362;SDS011;66428;47.322;9.432;2023-02-04T14:40:25;8.25;;;3.90;;
77362;SDS011;66428;47.322;9.432;2023-02-04T14:42:54;9.88;;;3.20;;
77362;SDS011;66428;47.322;9.432;2023-02-04T14:45:25;4.95;;;2.65;;
77362;SDS011;66428;47.322;9.432;2023-02-04T14:47:54;4.60;;;2.40;;
77362;SDS011;66428;47.322;9.432;2023-02-04T14:50:28;6.13;;;2.80;;
77362;SDS011;66428;47.322;9.432;2023-02-04T14:53:02;9.43;;;3.35;;
77362;SDS011;66428;47.322;9.432;2023-02-04T14:55:28;6.00;;;3.30;;
77362;SDS011;66428;47.322;9.432;2023-02-04T14:57:57;7.43;;;4.55;;
77362;SDS011;66428;47.322;9.432;2023-02-04T15:00:26;10.02;;;4.05;;
77362;SDS011;66428;47.322;9.432;2023-02-04T15:02:57;5.72;;;3.90;;
77362;SDS011;66428;47.322;9.432;2023-02-04T15:05:23;11.18;;;3.78;;
77362;SDS011;66428;47.322;9.432;2023-02-04T15:07:55;8.50;;;3.28;;
77362;SDS011;66428;47.322;9.432;2023-02-04T15:10:21;10.48;;;3.58;;
77362;SDS011;66428;47.322;9.432;2023-02-04T15:12:52;9.98;;;3.15;;
77362;SDS011;66428;47.322;9.432;2023-02-04T15:15:22;6.88;;;3.50;;
77362;SDS011;66428;47.322;9.432;2023-02-04T15:17:52;9.73;;;3.70;;
77362;SDS011;66428;47.322;9.432;2023-02-04T15:20:18;13.05;;;4.40;;
77362;SDS011;66428;47.322;9.432;2023-02-04T15:22:45;7.13;;;4.40;;
77362;SDS011;66428;47.322;9.432;2023-02-04T15:25:17;7.40;;;3.72;;
77362;SDS011;66428;47.322;9.432;2023-02-04T15:27:46;8.00;;;3.65;;
77362;SDS011;66428;47.322;9.432;2023-02-04T15:30:14;6.93;;;3.72;;
77362;SDS011;66428;47.322;9.432;2023-02-04T15:32:43;10.95;;;4.47;;
77362;SDS011;66428;47.322;9.432;2023-02-04T15:35:13;13.88;;;7.93;;
77362;SDS011;66428;47.322;9.432;2023-02-04T15:37:40;15.77;;;7.32;;
77362;SDS011;66428;47.322;9.432;2023-02-04T15:40:09;10.75;;;6.13;;
77362;SDS011;66428;47.322;9.432;2023-02-04T15:42:36;15.55;;;7.05;;
77362;SDS011;66428;47.322;9.432;2023-02-04T15:45:03;9.73;;;4.32;;